Aérodrome :
LOGIN :

S'inscrire | Disclaimer

   EN    FR    IT 

 










Légende :    VFR   VFR Marginal   IFR   IFR Intensif   IFR Très Intensif
Visi : 
Plafond : 
>= 8 km
>= 3000ft
5 à 8 km
1000 à 3000 ft
1500m à 5 km
500 à 1000 ft
800 à 1500m
200 à 500 ft
< 800m
< 200 ft
Symboles :   Orages  Brouillard  Fortes neiges  Fortes précipitations  Vent > 20 kt
SIGMETs :   Divers  Orages  Givrage  Turbulence  Onde Orograph.  Cendres Volcan.






- Altitude de l'aérodrome : 17 ft
- Code IATA : GRQ


EHGG - Groningen Eelde

DERNIER METAR :
  • 300455Z AUTO 23006KT 9999 SCT034 M03/M04 Q1031 BECMG 4000 -SN BKN012

METARs EXPIRÉS :
  • 300425Z AUTO 26005KT 9999 NCD M04/M05 Q1031 BECMG 4000 -SN BKN012
  • 300355Z AUTO 25003KT 9999 NCD M03/M04 Q1032
  • 300325Z AUTO 27003KT 230V360 9999 NCD M02/M04 Q1032
  • 300255Z AUTO 25005KT 9999 NCD M03/M05 Q1032
  • 300225Z AUTO VRB01KT 9999 SCT047 M01/M03 Q1032

TAF TAF EHGG
Valide du 30 à 00h jusqu'au 31 à 06h UTC


292312Z 3000/3106 30005KT 9999 SCT030
TEMPO 3006/3008 1500 -SN -SNRA BKN008
BECMG 3008/3010 34012KT
PROB40
TEMPO 3008/3015 6000 -SHRA -SHRAGS SCT018CB BKN020
BECMG 3016/3019 02009KT



MET'MAP, la Météo Aéronautique d'un coup d'oeil ! - Copyright ORBIFLY Décembre 2007 - Disclaimer

ORBIFLY MET'MAP TEAM :

Programmation & Développement : Alexandra Zaïnal
Sur une idée originale de : Baudouin d'Aumeries
Assistance à la programmation : Marc-Olivier Méhu
Soutien technique & logistique : Manuel Goepfert

Contact : metmap@orbifly.com




SOURCES & CREDITS :

   NOAA